createdAt,value
2022-07-28T00:00:50.012Z,94.59
2022-07-28T00:01:50.077Z,94.59
2022-07-28T00:02:50.029Z,94.59
2022-07-28T00:03:50.028Z,94.59
2022-07-28T00:04:50.024Z,94.59
2022-07-28T00:05:50.139Z,94.59
2022-07-28T00:06:50.013Z,94.59
2022-07-28T00:07:50.027Z,94.59
2022-07-28T00:08:50.015Z,94.59
2022-07-28T00:09:50.020Z,94.59
2022-07-28T00:10:50.012Z,94.59
2022-07-28T00:11:50.479Z,94.59
2022-07-28T00:12:50.024Z,94.59
2022-07-28T00:13:50.018Z,94.59
2022-07-28T00:14:50.015Z,94.59
2022-07-28T00:15:50.063Z,94.59
2022-07-28T00:16:50.058Z,94.59
2022-07-28T00:17:50.030Z,94.59
2022-07-28T00:18:50.024Z,94.59
2022-07-28T00:19:50.026Z,94.59
2022-07-28T00:20:50.023Z,94.59
2022-07-28T00:21:50.027Z,94.59
2022-07-28T00:22:50.027Z,94.59
2022-07-28T00:23:50.034Z,94.59
2022-07-28T00:24:50.028Z,94.59
2022-07-28T00:25:50.040Z,94.59
2022-07-28T00:26:50.030Z,94.59
2022-07-28T00:27:50.028Z,94.59
2022-07-28T00:28:50.030Z,94.59
2022-07-28T00:29:51.145Z,94.59
2022-07-28T00:30:50.026Z,94.59
2022-07-28T00:31:50.124Z,94.59
2022-07-28T00:32:50.027Z,94.59
2022-07-28T00:33:50.026Z,94.59
2022-07-28T00:34:50.030Z,94.59
2022-07-28T00:35:50.034Z,94.59
2022-07-28T00:36:50.033Z,94.59
2022-07-28T00:37:50.041Z,94.59
2022-07-28T00:38:50.030Z,94.59
2022-07-28T00:39:50.034Z,94.59
2022-07-28T00:40:50.032Z,94.59
2022-07-28T00:41:50.040Z,94.59
2022-07-28T00:42:50.030Z,94.59
2022-07-28T00:43:50.050Z,94.59
2022-07-28T00:44:50.035Z,94.59
2022-07-28T00:45:50.040Z,94.59
2022-07-28T00:46:50.103Z,94.59
2022-07-28T00:47:50.035Z,94.59
2022-07-28T00:48:50.081Z,94.59
2022-07-28T00:49:50.041Z,94.59
2022-07-28T00:50:50.045Z,94.59
2022-07-28T00:51:50.049Z,94.59
2022-07-28T00:52:50.041Z,94.59
2022-07-28T00:53:50.051Z,94.59
2022-07-28T00:54:50.039Z,94.59
2022-07-28T00:56:02.495Z,94.59
2022-07-28T00:56:50.039Z,94.59
2022-07-28T00:57:50.039Z,94.59
2022-07-28T00:58:50.039Z,94.59
2022-07-28T00:59:50.044Z,94.59
2022-07-28T01:00:50.055Z,94.59
2022-07-28T01:01:50.190Z,94.59
2022-07-28T01:02:50.105Z,94.59
2022-07-28T01:03:50.050Z,94.59
2022-07-28T01:04:50.054Z,94.59
2022-07-28T01:05:50.053Z,94.59
2022-07-28T01:06:50.053Z,94.59
2022-07-28T01:07:50.056Z,94.59
2022-07-28T01:08:50.064Z,94.59
2022-07-28T01:09:50.070Z,94.59
2022-07-28T01:10:50.058Z,94.59
2022-07-28T01:11:50.066Z,94.59
2022-07-28T01:12:50.070Z,94.59
2022-07-28T01:13:50.067Z,94.59
2022-07-28T01:14:50.067Z,94.59
2022-07-28T01:15:50.152Z,94.59
2022-07-28T01:16:50.073Z,94.59
2022-07-28T01:17:50.072Z,94.59
2022-07-28T01:18:50.080Z,94.59
2022-07-28T01:19:50.072Z,94.59
2022-07-28T01:20:50.090Z,94.59
2022-07-28T01:21:50.089Z,94.59
2022-07-28T01:22:50.085Z,94.59
2022-07-28T01:23:50.080Z,94.59
2022-07-28T01:24:50.081Z,94.59
2022-07-28T01:25:50.078Z,94.59
2022-07-28T01:26:50.080Z,94.59
2022-07-28T01:27:50.083Z,94.59
2022-07-28T01:28:50.084Z,94.59
2022-07-28T01:29:50.105Z,94.59
2022-07-28T01:30:50.193Z,94.59
2022-07-28T01:31:50.104Z,94.59
2022-07-28T01:32:50.095Z,94.59
2022-07-28T01:33:50.093Z,94.59
2022-07-28T01:34:50.099Z,94.59
2022-07-28T01:35:50.105Z,94.59
2022-07-28T01:36:50.100Z,94.59
2022-07-28T01:37:50.109Z,94.59
2022-07-28T01:38:50.109Z,94.59
2022-07-28T01:39:50.104Z,94.59
2022-07-28T01:40:50.355Z,94.59
2022-07-28T01:41:50.121Z,94.59
2022-07-28T01:42:50.120Z,94.59
2022-07-28T01:43:50.126Z,94.59
2022-07-28T01:44:50.128Z,94.59
2022-07-28T01:45:50.124Z,94.59
2022-07-28T01:46:50.197Z,94.59
2022-07-28T01:47:50.122Z,94.59
2022-07-28T01:48:50.146Z,94.59
2022-07-28T01:49:50.120Z,94.59
2022-07-28T01:50:50.129Z,94.59
2022-07-28T01:51:50.135Z,94.59
2022-07-28T01:52:50.134Z,94.59
2022-07-28T01:53:50.135Z,94.59
2022-07-28T01:54:50.135Z,94.59
2022-07-28T01:55:50.139Z,94.59
2022-07-28T01:56:50.140Z,94.59
2022-07-28T01:57:50.140Z,94.59
2022-07-28T01:58:50.136Z,94.59
2022-07-28T01:59:50.147Z,94.59
2022-07-28T02:00:50.150Z,94.59
2022-07-28T02:01:50.194Z,94.59
2022-07-28T02:02:50.147Z,94.59
2022-07-28T02:03:50.154Z,94.59
2022-07-28T02:04:50.208Z,94.59
2022-07-28T02:05:50.165Z,94.59
2022-07-28T02:06:50.151Z,94.59
2022-07-28T02:07:50.160Z,94.59
2022-07-28T02:08:50.159Z,94.59
2022-07-28T02:09:50.163Z,94.59
2022-07-28T02:10:50.163Z,94.59
2022-07-28T02:11:50.158Z,94.59
2022-07-28T02:12:50.161Z,94.59
2022-07-28T02:13:50.161Z,94.59
2022-07-28T02:14:50.160Z,94.59
2022-07-28T02:15:50.178Z,94.59
2022-07-28T02:16:50.157Z,94.59
2022-07-28T02:17:50.156Z,94.59
2022-07-28T02:18:50.164Z,94.59
2022-07-28T02:19:50.159Z,94.59
2022-07-28T02:20:50.168Z,94.59
2022-07-28T02:21:50.167Z,94.59
2022-07-28T02:22:51.200Z,94.59
2022-07-28T02:23:50.166Z,94.59
2022-07-28T02:24:50.172Z,94.59
2022-07-28T02:25:50.181Z,94.59
2022-07-28T02:26:50.181Z,94.59
2022-07-28T02:27:50.183Z,94.59
2022-07-28T02:28:50.182Z,94.59
2022-07-28T02:29:51.550Z,94.59
2022-07-28T02:30:50.197Z,94.59
2022-07-28T02:31:50.193Z,94.59
2022-07-28T02:32:50.178Z,94.59
2022-07-28T02:33:58.187Z,94.59
2022-07-28T02:34:50.188Z,94.59
2022-07-28T02:35:50.196Z,94.59
2022-07-28T02:36:50.191Z,94.59
2022-07-28T02:37:50.193Z,94.59
2022-07-28T02:38:50.190Z,94.59
2022-07-28T02:39:55.343Z,94.59
2022-07-28T02:40:50.189Z,94.59
2022-07-28T02:41:50.195Z,94.59
2022-07-28T02:42:50.198Z,94.59
2022-07-28T02:43:50.762Z,94.59
2022-07-28T02:44:50.203Z,94.59
2022-07-28T02:45:50.224Z,94.59
2022-07-28T02:46:50.205Z,94.59
2022-07-28T02:47:50.203Z,94.59
2022-07-28T02:48:50.267Z,94.59
2022-07-28T02:49:50.207Z,94.59
2022-07-28T02:50:50.207Z,94.59
2022-07-28T02:51:50.215Z,94.59
2022-07-28T02:52:50.213Z,94.59
2022-07-28T02:53:50.219Z,94.59
2022-07-28T02:54:50.211Z,94.59
2022-07-28T02:55:50.215Z,94.59
2022-07-28T02:56:53.015Z,94.59
2022-07-28T02:57:54.716Z,94.59
2022-07-28T02:58:50.221Z,94.59
2022-07-28T02:59:50.224Z,94.59
2022-07-28T03:00:50.233Z,94.59
2022-07-28T03:01:50.262Z,94.59
2022-07-28T03:02:50.223Z,94.59
2022-07-28T03:03:50.226Z,94.59
2022-07-28T03:04:50.271Z,94.59
2022-07-28T03:05:50.220Z,94.59
2022-07-28T03:06:50.216Z,94.59
2022-07-28T03:07:50.869Z,94.59
2022-07-28T03:08:50.230Z,94.59
2022-07-28T03:09:50.233Z,94.59
2022-07-28T03:10:50.227Z,94.59
2022-07-28T03:11:50.234Z,94.59
2022-07-28T03:12:50.248Z,94.59
2022-07-28T03:13:50.236Z,94.59
2022-07-28T03:14:50.240Z,94.59
2022-07-28T03:15:50.250Z,94.59
2022-07-28T03:16:55.193Z,94.59
2022-07-28T03:17:50.253Z,94.59
2022-07-28T03:18:50.236Z,94.59
2022-07-28T03:19:50.251Z,94.59
2022-07-28T03:20:50.244Z,94.59
2022-07-28T03:21:50.242Z,94.59
2022-07-28T03:22:50.253Z,94.59
2022-07-28T03:23:50.253Z,94.59
2022-07-28T03:24:50.255Z,94.59
2022-07-28T03:25:50.270Z,94.59
2022-07-28T03:26:50.250Z,94.59
2022-07-28T03:27:50.271Z,94.59
2022-07-28T03:28:50.273Z,129.88
2022-07-28T03:29:50.266Z,63.53
2022-07-28T03:30:50.328Z,63.53
2022-07-28T03:31:50.266Z,63.53
2022-07-28T03:32:50.264Z,63.53
2022-07-28T03:33:50.267Z,63.53
2022-07-28T03:34:50.270Z,63.53
2022-07-28T03:35:50.273Z,63.53
2022-07-28T03:36:50.265Z,63.53
2022-07-28T03:37:50.276Z,63.53
2022-07-28T03:38:50.268Z,63.53
2022-07-28T03:39:50.270Z,63.53
2022-07-28T03:40:50.294Z,63.53
2022-07-28T03:41:50.292Z,63.53
2022-07-28T03:42:50.282Z,63.53
2022-07-28T03:43:50.280Z,63.53
2022-07-28T03:44:50.285Z,63.53
2022-07-28T03:45:50.341Z,63.53
2022-07-28T03:46:50.279Z,156.71
2022-07-28T03:47:50.292Z,182.12
2022-07-28T03:48:50.338Z,156.71
2022-07-28T03:49:50.283Z,156.71
2022-07-28T03:50:50.292Z,156.71
2022-07-28T03:51:50.298Z,156.71
2022-07-28T03:52:50.294Z,182.12
2022-07-28T03:53:50.288Z,146.82
2022-07-28T03:54:50.299Z,153.88
2022-07-28T03:55:50.297Z,165.18
2022-07-28T03:56:50.294Z,166.59
2022-07-28T03:57:50.292Z,162.35
2022-07-28T03:58:50.296Z,138.35
2022-07-28T03:59:50.295Z,151.06
2022-07-28T04:00:50.323Z,151.06
2022-07-28T04:01:50.370Z,151.06
2022-07-28T04:02:50.376Z,151.06
2022-07-28T04:03:50.303Z,151.06
2022-07-28T04:04:50.311Z,151.06
2022-07-28T04:05:50.306Z,151.06
2022-07-28T04:06:50.307Z,151.06
2022-07-28T04:07:50.309Z,151.06
2022-07-28T04:08:50.311Z,151.06
2022-07-28T04:09:50.311Z,151.06
2022-07-28T04:10:50.296Z,151.06
2022-07-28T04:11:50.314Z,151.06
2022-07-28T04:12:50.310Z,151.06
2022-07-28T04:13:50.311Z,151.06
2022-07-28T04:14:50.322Z,151.06
2022-07-28T04:15:50.306Z,151.06
2022-07-28T04:16:50.344Z,151.06
2022-07-28T04:17:50.313Z,151.06
2022-07-28T04:18:50.311Z,151.06
2022-07-28T04:19:50.885Z,151.06
2022-07-28T04:20:50.313Z,151.06
2022-07-28T04:21:50.320Z,151.06
2022-07-28T04:22:50.324Z,151.06
2022-07-28T04:23:50.334Z,151.06
2022-07-28T04:24:50.321Z,151.06
2022-07-28T04:25:50.328Z,151.06
2022-07-28T04:26:50.328Z,151.06
2022-07-28T04:27:50.323Z,151.06
2022-07-28T04:28:50.325Z,151.06
2022-07-28T04:29:50.331Z,151.06
2022-07-28T04:30:50.394Z,151.06
2022-07-28T04:31:50.330Z,151.06
2022-07-28T04:32:50.332Z,151.06
2022-07-28T04:33:50.325Z,151.06
2022-07-28T04:34:50.335Z,151.06
2022-07-28T04:35:50.330Z,151.06
2022-07-28T04:36:50.330Z,151.06
2022-07-28T04:37:50.332Z,151.06
2022-07-28T04:38:50.333Z,151.06
2022-07-28T04:39:50.333Z,151.06
2022-07-28T04:40:50.333Z,151.06
2022-07-28T04:41:50.347Z,151.06
2022-07-28T04:42:50.352Z,151.06
2022-07-28T04:43:50.354Z,151.06
2022-07-28T04:44:50.335Z,139.76
2022-07-28T04:45:53.692Z,139.76
2022-07-28T04:46:50.351Z,141.18
2022-07-28T04:47:50.340Z,141.18
2022-07-28T04:48:50.406Z,141.18
2022-07-28T04:49:50.345Z,192
2022-07-28T04:50:50.350Z,151.06
2022-07-28T04:51:50.353Z,179.29
2022-07-28T04:52:50.350Z,127.06
2022-07-28T04:53:50.350Z,111.53
2022-07-28T04:54:50.349Z,111.53
2022-07-28T04:55:50.353Z,111.53
2022-07-28T04:56:50.344Z,111.53
2022-07-28T04:57:50.348Z,111.53
2022-07-28T04:58:50.361Z,111.53
2022-07-28T04:59:50.354Z,111.53
2022-07-28T05:00:50.693Z,111.53
2022-07-28T05:01:50.400Z,111.53
2022-07-28T05:02:50.349Z,111.53
2022-07-28T05:03:50.349Z,111.53
2022-07-28T05:04:50.390Z,111.53
2022-07-28T05:05:53.815Z,111.53
2022-07-28T05:06:50.346Z,111.53
2022-07-28T05:07:50.353Z,111.53
2022-07-28T05:08:50.351Z,111.53
2022-07-28T05:09:50.356Z,111.53
2022-07-28T05:10:50.351Z,111.53
2022-07-28T05:11:50.351Z,111.53
2022-07-28T05:12:50.355Z,111.53
2022-07-28T05:13:50.350Z,111.53
2022-07-28T05:14:50.362Z,111.53
2022-07-28T05:15:50.361Z,111.53
2022-07-28T05:16:50.384Z,111.53
2022-07-28T05:17:50.379Z,111.53
2022-07-28T05:18:50.358Z,111.53
2022-07-28T05:19:50.356Z,111.53
2022-07-28T05:20:50.363Z,111.53
2022-07-28T05:21:50.359Z,111.53
2022-07-28T05:22:50.357Z,111.53
2022-07-28T05:23:50.354Z,111.53
2022-07-28T05:24:50.371Z,111.53
2022-07-28T05:25:50.353Z,111.53
2022-07-28T05:26:50.355Z,111.53
2022-07-28T05:27:50.360Z,111.53
2022-07-28T05:28:50.360Z,111.53
2022-07-28T05:29:51.738Z,111.53
2022-07-28T05:30:50.366Z,111.53
2022-07-28T05:31:50.447Z,111.53
2022-07-28T05:32:50.354Z,111.53
2022-07-28T05:33:50.355Z,111.53
2022-07-28T05:34:50.352Z,111.53
2022-07-28T05:35:50.350Z,111.53
2022-07-28T05:36:50.359Z,111.53
2022-07-28T05:37:50.385Z,111.53
2022-07-28T05:38:50.354Z,111.53
2022-07-28T05:39:50.362Z,111.53
2022-07-28T05:40:50.363Z,111.53
2022-07-28T05:41:50.363Z,111.53
2022-07-28T05:42:50.378Z,111.53
2022-07-28T05:43:50.368Z,111.53
2022-07-28T05:44:50.371Z,111.53
2022-07-28T05:45:50.423Z,111.53
2022-07-28T05:46:50.376Z,111.53
2022-07-28T05:47:50.373Z,111.53
2022-07-28T05:48:50.412Z,111.53
2022-07-28T05:49:50.376Z,111.53
2022-07-28T05:50:50.370Z,111.53
2022-07-28T05:51:50.378Z,111.53
2022-07-28T05:52:50.383Z,111.53
2022-07-28T05:53:50.383Z,111.53
2022-07-28T05:54:50.382Z,111.53
2022-07-28T05:55:56.409Z,111.53
2022-07-28T05:56:50.537Z,111.53
2022-07-28T05:57:50.385Z,111.53
2022-07-28T05:58:50.389Z,111.53
2022-07-28T05:59:50.387Z,111.53
2022-07-28T06:00:50.423Z,111.53
2022-07-28T06:01:50.446Z,111.53
2022-07-28T06:02:50.402Z,111.53
2022-07-28T06:03:58.388Z,111.53
2022-07-28T06:04:50.404Z,111.53
2022-07-28T06:05:58.311Z,111.53
2022-07-28T06:06:50.402Z,111.53
2022-07-28T06:07:50.397Z,111.53
2022-07-28T06:08:50.398Z,111.53
2022-07-28T06:09:50.397Z,111.53
2022-07-28T06:10:50.419Z,111.53
2022-07-28T06:11:50.880Z,111.53
2022-07-28T06:12:50.405Z,111.53
2022-07-28T06:13:50.423Z,111.53
2022-07-28T06:14:50.400Z,111.53
2022-07-28T06:15:50.411Z,111.53
2022-07-28T06:16:50.459Z,111.53
2022-07-28T06:17:50.408Z,111.53
2022-07-28T06:18:50.406Z,111.53
2022-07-28T06:19:50.411Z,111.53
2022-07-28T06:20:50.412Z,111.53
2022-07-28T06:21:50.406Z,111.53
2022-07-28T06:22:50.417Z,111.53
2022-07-28T06:23:50.407Z,111.53
2022-07-28T06:24:50.413Z,111.53
2022-07-28T06:25:50.407Z,111.53
2022-07-28T06:26:50.419Z,111.53
2022-07-28T06:27:50.415Z,111.53
2022-07-28T06:28:50.416Z,111.53
2022-07-28T06:29:50.417Z,111.53
2022-07-28T06:30:50.421Z,186.35
2022-07-28T06:31:50.500Z,176.47
2022-07-28T06:32:50.427Z,176.47
2022-07-28T06:33:50.426Z,245.65
2022-07-28T06:34:50.422Z,234.35
2022-07-28T06:35:51.207Z,237.18
2022-07-28T06:36:50.434Z,237.18
2022-07-28T06:37:50.420Z,237.18
2022-07-28T06:38:50.435Z,237.18
2022-07-28T06:39:50.437Z,237.18
2022-07-28T06:40:50.425Z,237.18
2022-07-28T06:41:50.430Z,237.18
2022-07-28T06:42:50.431Z,237.18
2022-07-28T06:43:50.435Z,237.18
2022-07-28T06:44:58.710Z,237.18
2022-07-28T06:45:50.436Z,237.18
2022-07-28T06:46:50.514Z,237.18
2022-07-28T06:47:50.447Z,237.18
2022-07-28T06:48:50.539Z,237.18
2022-07-28T06:49:50.448Z,158.12
2022-07-28T06:50:50.449Z,158.12
2022-07-28T06:51:50.458Z,158.12
2022-07-28T06:52:50.453Z,125.65
2022-07-28T06:53:50.446Z,160.94
2022-07-28T06:54:50.453Z,149.65
2022-07-28T06:55:50.457Z,149.65
2022-07-28T06:56:50.458Z,149.65
2022-07-28T06:57:50.458Z,149.65
2022-07-28T06:58:50.456Z,149.65
2022-07-28T06:59:50.467Z,149.65
2022-07-28T07:00:50.528Z,149.65
2022-07-28T07:01:50.457Z,149.65
2022-07-28T07:02:50.468Z,149.65
2022-07-28T07:03:50.497Z,149.65
2022-07-28T07:04:50.474Z,149.65
2022-07-28T07:05:51.665Z,240
2022-07-28T07:06:50.469Z,206.12
2022-07-28T07:07:50.466Z,217.41
2022-07-28T07:08:50.475Z,217.41
2022-07-28T07:09:50.491Z,203.29
2022-07-28T07:10:50.477Z,213.18
2022-07-28T07:11:50.481Z,218.82
2022-07-28T07:12:50.486Z,286.59
2022-07-28T07:13:50.499Z,280.94
2022-07-28T07:14:50.484Z,242.82
2022-07-28T07:15:50.566Z,193.41
2022-07-28T07:16:50.554Z,252.71
2022-07-28T07:17:50.499Z,201.88
2022-07-28T07:18:50.495Z,217.41
2022-07-28T07:19:50.495Z,207.53
2022-07-28T07:20:50.498Z,189.18
2022-07-28T07:21:50.487Z,166.59
2022-07-28T07:22:50.487Z,206.12
2022-07-28T07:23:50.496Z,163.76
2022-07-28T07:24:54.959Z,153.88
2022-07-28T07:25:50.507Z,176.47
2022-07-28T07:26:50.510Z,194.82
2022-07-28T07:27:50.523Z,197.65
2022-07-28T07:28:50.516Z,146.82
2022-07-28T07:29:50.505Z,155.29
2022-07-28T07:30:50.509Z,170.82
2022-07-28T07:31:52.793Z,179.29
2022-07-28T07:32:50.517Z,193.41
2022-07-28T07:33:50.515Z,173.65
2022-07-28T07:34:50.520Z,182.12
2022-07-28T07:35:50.515Z,204.71
2022-07-28T07:36:50.534Z,213.18
2022-07-28T07:37:50.523Z,203.29
2022-07-28T07:38:50.525Z,208.94
2022-07-28T07:39:50.520Z,204.71
2022-07-28T07:40:50.520Z,177.88
2022-07-28T07:41:50.527Z,179.29
2022-07-28T07:42:50.525Z,190.59
2022-07-28T07:43:50.529Z,197.65
2022-07-28T07:44:50.585Z,200.47
2022-07-28T07:45:50.521Z,192
2022-07-28T07:46:50.579Z,187.76
2022-07-28T07:47:50.535Z,182.12
2022-07-28T07:48:50.621Z,173.65
2022-07-28T07:49:50.536Z,176.47
2022-07-28T07:50:53.912Z,158.12
2022-07-28T07:51:50.541Z,158.12
2022-07-28T07:52:50.541Z,158.12
2022-07-28T07:53:50.526Z,158.12
2022-07-28T07:54:50.543Z,158.12
2022-07-28T07:55:50.537Z,158.12
2022-07-28T07:56:50.542Z,158.12
2022-07-28T07:57:50.543Z,158.12
2022-07-28T07:58:55.063Z,158.12
2022-07-28T07:59:50.536Z,158.12
2022-07-28T08:00:50.537Z,158.12
2022-07-28T08:01:50.599Z,201.88
2022-07-28T08:02:50.550Z,194.82
2022-07-28T08:03:50.552Z,180.71
2022-07-28T08:04:50.586Z,180.71
2022-07-28T08:05:50.553Z,180.71
2022-07-28T08:06:50.546Z,180.71
2022-07-28T08:07:50.548Z,180.71
2022-07-28T08:08:50.550Z,180.71
2022-07-28T08:09:50.558Z,180.71
2022-07-28T08:10:50.549Z,180.71
2022-07-28T08:11:50.557Z,180.71
2022-07-28T08:12:50.558Z,180.71
2022-07-28T08:13:50.558Z,180.71
2022-07-28T08:14:50.553Z,194.82
2022-07-28T08:15:50.636Z,177.88
2022-07-28T08:16:50.564Z,190.59
2022-07-28T08:17:50.567Z,190.59
2022-07-28T08:18:50.563Z,175.06
2022-07-28T08:19:50.572Z,152.47
2022-07-28T08:20:50.570Z,152.47
2022-07-28T08:21:50.575Z,172.24
2022-07-28T08:22:50.561Z,146.82
2022-07-28T08:23:50.566Z,146.82
2022-07-28T08:24:50.561Z,50.82
2022-07-28T08:25:50.567Z,53.65
2022-07-28T08:26:50.568Z,49.41
2022-07-28T08:27:50.569Z,49.41
2022-07-28T08:28:50.563Z,170.82
2022-07-28T08:29:50.564Z,208.94
2022-07-28T08:30:50.634Z,146.82
2022-07-28T08:31:50.666Z,268.24
2022-07-28T08:32:56.672Z,220.24
2022-07-28T08:33:54.021Z,232.94
2022-07-28T08:34:53.811Z,203.29
2022-07-28T08:35:51.572Z,261.18
2022-07-28T08:36:50.576Z,300.71
2022-07-28T08:37:50.577Z,300.71
2022-07-28T08:38:50.593Z,300.71
2022-07-28T08:39:50.582Z,300.71
2022-07-28T08:40:50.586Z,300.71
2022-07-28T08:41:50.581Z,247.06
2022-07-28T08:42:50.591Z,244.24
2022-07-28T08:43:50.586Z,146.82
2022-07-28T08:44:50.585Z,146.82
2022-07-28T08:45:53.688Z,146.82
2022-07-28T08:46:50.650Z,146.82
2022-07-28T08:48:07.579Z,146.82
2022-07-28T08:48:50.640Z,146.82
2022-07-28T08:49:50.603Z,258.35
2022-07-28T08:50:50.598Z,231.53
2022-07-28T08:51:50.606Z,245.65
2022-07-28T08:52:50.619Z,211.76
2022-07-28T08:53:50.605Z,206.12
2022-07-28T08:54:50.611Z,182.12
2022-07-28T08:55:50.606Z,182.12
2022-07-28T08:56:50.606Z,182.12
2022-07-28T08:57:50.601Z,282.35
2022-07-28T08:58:50.605Z,241.41
2022-07-28T08:59:50.602Z,280.94
2022-07-28T09:00:50.611Z,290.82
2022-07-28T09:01:54.081Z,231.53
2022-07-28T09:02:52.097Z,237.18
2022-07-28T09:03:50.619Z,288
2022-07-28T09:04:50.610Z,278.12
2022-07-28T09:05:50.613Z,285.18
2022-07-28T09:06:50.609Z,251.29
2022-07-28T09:07:54.335Z,242.82
2022-07-28T09:08:50.614Z,190.59
2022-07-28T09:09:50.619Z,177.88
2022-07-28T09:10:50.612Z,165.18
2022-07-28T09:11:50.612Z,146.82
2022-07-28T09:12:50.621Z,146.82
2022-07-28T09:13:53.839Z,192
2022-07-28T09:14:50.613Z,204.71
2022-07-28T09:15:50.689Z,245.65
2022-07-28T09:16:50.617Z,249.88
2022-07-28T09:17:50.613Z,279.53
2022-07-28T09:18:50.620Z,273.88
2022-07-28T09:19:50.613Z,264
2022-07-28T09:20:50.628Z,264
2022-07-28T09:21:50.620Z,264
2022-07-28T09:22:50.620Z,251.29
2022-07-28T09:23:50.619Z,247.06
2022-07-28T09:24:50.619Z,228.71
2022-07-28T09:25:50.625Z,293.65
2022-07-28T09:26:50.619Z,280.94
2022-07-28T09:27:50.631Z,279.53
2022-07-28T09:28:50.627Z,224.47
2022-07-28T09:29:50.623Z,224.47
2022-07-28T09:30:54.032Z,206.12
2022-07-28T09:31:55.531Z,149.65
2022-07-28T09:32:50.631Z,169.41
2022-07-28T09:33:50.624Z,251.29
2022-07-28T09:34:51.385Z,235.76
2022-07-28T09:35:50.645Z,221.65
2022-07-28T09:36:50.635Z,312
2022-07-28T09:37:50.621Z,296.47
2022-07-28T09:38:50.632Z,330.35
2022-07-28T09:39:50.635Z,309.18
2022-07-28T09:40:50.638Z,264
2022-07-28T09:41:50.636Z,190.59
2022-07-28T09:42:50.632Z,192
2022-07-28T09:43:54.706Z,162.35
2022-07-28T09:45:06.003Z,165.18
2022-07-28T09:45:50.633Z,162.35
2022-07-28T09:46:50.870Z,192
2022-07-28T09:47:50.799Z,197.65
2022-07-28T09:48:51.070Z,149.65
2022-07-28T09:49:50.732Z,149.65
2022-07-28T09:50:50.642Z,197.65
2022-07-28T09:51:50.643Z,173.65
2022-07-28T09:52:50.641Z,156.71
2022-07-28T09:53:50.636Z,158.12
2022-07-28T09:54:50.633Z,62.12
2022-07-28T09:55:50.642Z,101.65
2022-07-28T09:56:50.636Z,182.12
2022-07-28T09:57:50.640Z,241.41
2022-07-28T09:58:50.635Z,207.53
2022-07-28T09:59:55.247Z,248.47
2022-07-28T10:00:50.645Z,285.18
2022-07-28T10:01:50.674Z,295.06
2022-07-28T10:02:50.697Z,306.35
2022-07-28T10:03:50.641Z,288
2022-07-28T10:04:50.647Z,4.24
2022-07-28T10:05:53.769Z,279.53
2022-07-28T10:06:50.639Z,320.47
2022-07-28T10:07:50.652Z,286.59
2022-07-28T10:08:50.644Z,272.47
2022-07-28T10:09:50.648Z,259.76
2022-07-28T10:10:50.650Z,248.47
2022-07-28T10:11:50.652Z,244.24
2022-07-28T10:12:50.643Z,279.53
2022-07-28T10:13:50.656Z,290.82
2022-07-28T10:14:50.652Z,296.47
2022-07-28T10:15:51.217Z,300.71
2022-07-28T10:16:50.663Z,299.29
2022-07-28T10:17:50.658Z,290.82
2022-07-28T10:18:50.663Z,251.29
2022-07-28T10:19:50.659Z,224.47
2022-07-28T10:20:50.672Z,264
2022-07-28T10:21:50.665Z,247.06
2022-07-28T10:22:50.668Z,186.35
2022-07-28T10:23:50.667Z,225.88
2022-07-28T10:24:50.674Z,207.53
2022-07-28T10:25:50.672Z,207.53
2022-07-28T10:26:50.684Z,207.53
2022-07-28T10:27:50.668Z,343.06
2022-07-28T10:28:50.676Z,292.24
2022-07-28T10:29:50.676Z,272.47
2022-07-28T10:30:50.712Z,286.59
2022-07-28T10:31:50.675Z,285.18
2022-07-28T10:32:50.684Z,283.76
2022-07-28T10:33:50.692Z,295.06
2022-07-28T10:34:50.684Z,295.06
2022-07-28T10:35:54.957Z,292.24
2022-07-28T10:36:50.684Z,290.82
2022-07-28T10:37:50.680Z,262.59
2022-07-28T10:38:50.692Z,242.82
2022-07-28T10:39:50.687Z,254.12
2022-07-28T10:40:50.705Z,276.71
2022-07-28T10:41:50.692Z,276.71
2022-07-28T10:42:50.692Z,276.71
2022-07-28T10:43:50.698Z,276.71
2022-07-28T10:44:50.683Z,269.65
2022-07-28T10:46:07.632Z,256.94
2022-07-28T10:46:50.778Z,207.53
2022-07-28T10:47:50.687Z,153.88
2022-07-28T10:48:50.741Z,153.88
2022-07-28T10:49:50.688Z,153.88
2022-07-28T10:50:50.710Z,288
2022-07-28T10:52:15.330Z,293.65
2022-07-28T10:52:54.737Z,269.65
2022-07-28T10:53:50.705Z,290.82
2022-07-28T10:54:50.701Z,282.35
2022-07-28T10:55:50.701Z,210.35
2022-07-28T10:56:50.713Z,187.76
2022-07-28T10:58:01.866Z,187.76
2022-07-28T10:58:50.712Z,187.76
2022-07-28T10:59:53.219Z,179.29
2022-07-28T11:01:04.853Z,180.71
2022-07-28T11:01:50.920Z,169.41
2022-07-28T11:02:50.930Z,288
2022-07-28T11:03:50.918Z,324.71
2022-07-28T11:04:50.726Z,328.94
2022-07-28T11:05:50.730Z,313.41
2022-07-28T11:06:50.742Z,313.41
2022-07-28T11:07:50.738Z,320.47
2022-07-28T11:08:50.738Z,285.18
2022-07-28T11:09:50.747Z,86.12
2022-07-28T11:10:50.742Z,45.18
2022-07-28T11:11:50.735Z,16.94
2022-07-28T11:12:50.748Z,21.18
2022-07-28T11:13:51.608Z,328.94
2022-07-28T11:14:50.754Z,328.94
2022-07-28T11:15:50.753Z,330.35
2022-07-28T11:16:50.803Z,331.76
2022-07-28T11:17:50.747Z,286.59
2022-07-28T11:18:50.753Z,330.35
2022-07-28T11:19:55.518Z,321.88
2022-07-28T11:20:50.755Z,326.12
2022-07-28T11:21:52.882Z,326.12
2022-07-28T11:22:50.757Z,199.06
2022-07-28T11:23:50.766Z,197.65
2022-07-28T11:24:50.772Z,189.18
2022-07-28T11:25:50.765Z,163.76
2022-07-28T11:26:50.778Z,172.24
2022-07-28T11:27:51.112Z,170.82
2022-07-28T11:28:50.781Z,168
2022-07-28T11:29:50.768Z,173.65
2022-07-28T11:30:50.857Z,165.18
2022-07-28T11:31:50.773Z,144
2022-07-28T11:32:50.774Z,144
2022-07-28T11:33:50.778Z,165.18
2022-07-28T11:34:50.783Z,175.06
2022-07-28T11:35:50.775Z,179.29
2022-07-28T11:36:50.794Z,163.76
2022-07-28T11:37:50.785Z,292.24
2022-07-28T11:38:50.785Z,265.41
2022-07-28T11:39:50.785Z,275.29
2022-07-28T11:40:50.786Z,266.82
2022-07-28T11:41:50.783Z,272.47
2022-07-28T11:42:50.786Z,264
2022-07-28T11:43:50.786Z,328.94
2022-07-28T11:44:50.784Z,278.12
2022-07-28T11:45:55.690Z,299.29
2022-07-28T11:46:52.540Z,275.29
2022-07-28T11:47:50.797Z,303.53
2022-07-28T11:48:50.816Z,306.35
2022-07-28T11:49:50.793Z,295.06
2022-07-28T11:50:50.795Z,283.76
2022-07-28T11:51:51.216Z,255.53
2022-07-28T11:52:50.798Z,221.65
2022-07-28T11:53:50.809Z,245.65
2022-07-28T11:54:50.811Z,296.47
2022-07-28T11:55:56.191Z,295.06
2022-07-28T11:56:50.801Z,297.88
2022-07-28T11:57:53.768Z,252.71
2022-07-28T11:58:50.803Z,268.24
2022-07-28T11:59:50.808Z,279.53
2022-07-28T12:00:50.814Z,279.53
2022-07-28T12:01:50.809Z,254.12
2022-07-28T12:02:50.914Z,207.53
2022-07-28T12:03:54.830Z,213.18
2022-07-28T12:04:50.866Z,245.65
2022-07-28T12:05:50.819Z,324.71
2022-07-28T12:06:51.410Z,278.12
2022-07-28T12:07:50.821Z,296.47
2022-07-28T12:08:50.821Z,221.65
2022-07-28T12:09:50.823Z,189.18
2022-07-28T12:10:55.210Z,163.76
2022-07-28T12:11:50.833Z,163.76
2022-07-28T12:12:50.829Z,248.47
2022-07-28T12:13:50.829Z,203.29
2022-07-28T12:14:50.838Z,286.59
2022-07-28T12:15:50.825Z,228.71
2022-07-28T12:16:50.897Z,208.94
2022-07-28T12:17:50.833Z,214.59
2022-07-28T12:18:50.837Z,220.24
2022-07-28T12:19:50.839Z,251.29
2022-07-28T12:20:50.849Z,204.71
2022-07-28T12:21:50.842Z,276.71
2022-07-28T12:22:50.848Z,206.12
2022-07-28T12:23:50.839Z,223.06
2022-07-28T12:24:50.846Z,214.59
2022-07-28T12:25:50.855Z,173.65
2022-07-28T12:26:50.850Z,184.94
2022-07-28T12:27:50.851Z,176.47
2022-07-28T12:28:50.854Z,203.29
2022-07-28T12:29:50.853Z,177.88
2022-07-28T12:30:50.863Z,132.71
2022-07-28T12:31:50.915Z,132.71
2022-07-28T12:32:50.864Z,132.71
2022-07-28T12:33:50.869Z,132.71
2022-07-28T12:34:50.861Z,132.71
2022-07-28T12:35:50.862Z,132.71
2022-07-28T12:36:50.860Z,132.71
2022-07-28T12:37:50.859Z,132.71